Time;durP1;ratioP1;P1;durP2;ratioP2;P2;SDS_P1;SDS_P2;PMS_P1;PMS_P2;Temp;Humidity;BMP_temperature;BMP_pressure;BME280_temperature;BME280_humidity;BME280_pressure;Samples;Min_cycle;Max_cycle;Signal;HPM_P1;HPM_P2
2023/01/26 00:01:08;;;;;;;35.90;24.60;;;4.20;99.90;;;;;;5052717;28;20032;-83
2023/01/26 00:03:34;;;;;;;31.30;22.42;;;4.40;99.90;;;;;;5052775;28;20108;-82
2023/01/26 00:06:07;;;;;;;34.15;22.92;;;4.70;99.90;;;;;;5053204;28;20120;-82
2023/01/26 00:08:40;;;;;;;32.55;23.02;;;4.60;99.90;;;;;;5053092;28;20086;-83
2023/01/26 00:11:07;;;;;;;35.10;23.50;;;4.20;99.90;;;;;;5052936;28;20059;-82
2023/01/26 00:13:34;;;;;;;34.00;22.58;;;4.40;99.90;;;;;;5052649;28;20504;-82
2023/01/26 00:16:00;;;;;;;34.95;24.00;;;4.10;99.90;;;;;;5053095;28;20025;-82
2023/01/26 00:18:25;;;;;;;40.00;27.38;;;4.10;99.90;;;;;;5052796;28;20452;-83
2023/01/26 00:20:56;;;;;;;41.65;27.23;;;4.30;99.90;;;;;;5035244;28;20029;-83
2023/01/26 00:23:22;;;;;;;51.13;33.90;;;4.30;99.90;;;;;;5052464;28;20060;-83
2023/01/26 00:25:48;;;;;;;54.90;34.28;;;4.10;99.90;;;;;;5052413;28;20060;-82
2023/01/26 00:28:13;;;;;;;56.35;34.95;;;4.20;99.90;;;;;;5052328;28;20343;-82
2023/01/26 00:30:39;;;;;;;70.20;41.08;;;4.20;99.90;;;;;;5052400;28;20029;-82
2023/01/26 00:33:04;;;;;;;46.10;30.52;;;4.20;99.90;;;;;;5052349;28;20049;-83
2023/01/26 00:35:30;;;;;;;52.72;34.15;;;4.10;99.90;;;;;;5052565;28;20099;-82
2023/01/26 00:37:56;;;;;;;38.78;27.00;;;4.00;99.90;;;;;;5034733;28;20036;-83
2023/01/26 00:40:21;;;;;;;45.25;30.05;;;4.10;99.90;;;;;;5052501;28;20416;-82
2023/01/26 00:42:47;;;;;;;61.08;37.97;;;4.00;99.90;;;;;;5052103;28;20036;-82
2023/01/26 00:45:12;;;;;;;87.93;48.45;;;4.00;99.90;;;;;;5052678;28;20116;-82
2023/01/26 00:47:38;;;;;;;36.67;24.20;;;4.10;99.90;;;;;;5052143;28;20040;-83
2023/01/26 00:50:04;;;;;;;50.72;33.83;;;4.20;99.90;;;;;;5048574;28;20097;-82
2023/01/26 00:52:30;;;;;;;47.55;31.65;;;4.00;99.90;;;;;;5052516;28;20195;-82
2023/01/26 00:54:56;;;;;;;48.08;31.88;;;4.10;99.90;;;;;;5052025;28;20111;-82
2023/01/26 00:57:22;;;;;;;40.40;27.27;;;3.90;99.90;;;;;;5034441;28;20029;-82
2023/01/26 00:59:47;;;;;;;40.45;27.00;;;4.10;99.90;;;;;;5052521;28;20103;-82
2023/01/26 01:02:13;;;;;;;43.35;28.52;;;3.90;99.90;;;;;;5052526;28;20021;-82
2023/01/26 01:04:38;;;;;;;52.85;34.03;;;3.90;99.90;;;;;;5034465;28;20481;-82
2023/01/26 01:07:04;;;;;;;61.35;35.92;;;4.10;99.90;;;;;;5051982;28;20036;-82
2023/01/26 01:09:30;;;;;;;49.20;28.98;;;4.00;99.90;;;;;;5052423;28;20025;-83
2023/01/26 01:11:55;;;;;;;80.28;41.80;;;3.70;99.90;;;;;;5051990;28;20025;-82
2023/01/26 01:14:21;;;;;;;47.78;30.70;;;3.70;99.90;;;;;;5051800;28;20029;-83
2023/01/26 01:16:46;;;;;;;76.03;41.92;;;3.80;99.90;;;;;;5053059;28;20032;-82
2023/01/26 01:19:17;;;;;;;39.42;27.02;;;3.80;99.90;;;;;;5051973;28;20099;-84
2023/01/26 01:21:43;;;;;;;50.58;31.20;;;4.00;99.90;;;;;;5051544;28;20036;-85
2023/01/26 01:24:10;;;;;;;56.78;33.67;;;3.90;99.90;;;;;;5051904;28;20033;-85
2023/01/26 01:26:36;;;;;;;88.30;47.20;;;3.80;99.90;;;;;;5050654;28;20120;-85
2023/01/26 01:29:02;;;;;;;44.03;29.40;;;3.90;99.90;;;;;;5051727;28;20112;-85
2023/01/26 01:31:28;;;;;;;49.88;32.28;;;3.80;99.90;;;;;;5051454;28;20054;-85
2023/01/26 01:33:54;;;;;;;43.75;27.90;;;3.70;99.90;;;;;;5052014;28;20072;-86
2023/01/26 01:36:20;;;;;;;63.50;35.92;;;3.70;99.90;;;;;;5051224;28;20114;-85
2023/01/26 01:38:47;;;;;;;50.35;32.10;;;3.90;99.90;;;;;;5051910;28;20021;-85
2023/01/26 01:41:14;;;;;;;39.80;27.08;;;3.90;99.90;;;;;;5051217;28;20067;-85
2023/01/26 01:43:40;;;;;;;54.72;33.65;;;3.80;99.90;;;;;;5051584;28;20017;-85
2023/01/26 01:46:23;;;;;;;51.13;32.30;;;3.80;99.90;;;;;;5051432;28;20122;-85
2023/01/26 01:49:14;;;;;;;40.00;26.50;;;4.10;99.90;;;;;;5051578;28;20104;-85
2023/01/26 01:52:08;;;;;;;61.58;35.25;;;3.80;99.90;;;;;;4990126;28;20088;-85
2023/01/26 01:55:06;;;;;;;59.00;35.17;;;3.70;99.90;;;;;;4987184;28;20625;-85
2023/01/26 01:57:43;;;;;;;44.15;28.45;;;3.70;99.90;;;;;;4983463;28;20043;-85
2023/01/26 02:00:17;;;;;;;38.42;25.35;;;3.60;99.90;;;;;;4989909;28;20364;-85
2023/01/26 02:03:09;;;;;;;41.30;26.45;;;3.80;99.90;;;;;;4989876;28;20049;-85
2023/01/26 02:05:34;;;;;;;71.82;40.80;;;4.20;99.90;;;;;;4989264;28;20110;-85
2023/01/26 02:08:02;;;;;;;52.67;32.45;;;3.70;99.90;;;;;;4970950;28;20089;-85
2023/01/26 02:10:28;;;;;;;45.60;28.55;;;3.70;99.90;;;;;;4983017;28;20038;-85
2023/01/26 02:12:55;;;;;;;80.07;43.47;;;3.90;99.90;;;;;;4989760;28;20031;-85
2023/01/26 02:15:21;;;;;;;94.55;46.90;;;3.80;99.90;;;;;;4989073;28;20411;-85
2023/01/26 02:17:50;;;;;;;39.78;26.05;;;3.80;99.90;;;;;;4989906;28;20037;-85
2023/01/26 02:20:27;;;;;;;42.90;26.70;;;4.10;99.90;;;;;;4989764;28;20035;-85
2023/01/26 02:22:58;;;;;;;43.65;27.38;;;3.60;99.90;;;;;;4989789;28;20100;-85
2023/01/26 02:25:49;;;;;;;45.38;28.48;;;3.70;99.90;;;;;;4988971;28;20035;-85
2023/01/26 02:28:16;;;;;;;56.78;33.40;;;3.60;99.90;;;;;;5013048;28;20041;-85
2023/01/26 02:30:42;;;;;;;67.78;38.80;;;3.70;99.90;;;;;;5055357;28;20071;-84
2023/01/26 02:33:17;;;;;;;54.38;33.22;;;3.70;99.90;;;;;;5054827;28;20084;-85
2023/01/26 02:35:42;;;;;;;72.22;41.05;;;3.80;99.90;;;;;;5054827;28;20519;-85
2023/01/26 02:38:08;;;;;;;38.88;26.58;;;3.90;99.90;;;;;;5055122;28;20095;-84
2023/01/26 02:40:42;;;;;;;38.65;24.85;;;3.80;99.90;;;;;;5054717;28;20056;-85
2023/01/26 02:43:08;;;;;;;69.70;40.92;;;3.90;99.90;;;;;;5054709;28;20501;-85
2023/01/26 02:45:34;;;;;;;93.53;51.50;;;4.00;99.90;;;;;;5053838;28;20033;-85
2023/01/26 02:48:03;;;;;;;77.22;46.58;;;3.80;99.90;;;;;;5054684;28;20036;-85
2023/01/26 02:50:29;;;;;;;44.92;29.48;;;3.90;99.90;;;;;;5054606;28;20032;-85
2023/01/26 02:52:55;;;;;;;75.75;44.55;;;3.80;99.90;;;;;;5053926;28;20040;-85
2023/01/26 02:55:21;;;;;;;43.78;29.00;;;4.10;99.90;;;;;;5055088;28;20029;-85
2023/01/26 02:57:48;;;;;;;52.97;33.42;;;4.10;99.90;;;;;;5054407;28;20025;-85
2023/01/26 03:00:17;;;;;;;56.42;35.08;;;3.70;99.90;;;;;;5054758;28;20032;-85
2023/01/26 03:02:44;;;;;;;77.93;46.67;;;3.60;99.90;;;;;;5038494;28;20029;-85
2023/01/26 03:05:10;;;;;;;54.05;34.55;;;3.80;99.90;;;;;;5054542;28;20043;-85
2023/01/26 03:07:35;;;;;;;52.78;32.30;;;4.00;99.90;;;;;;5053771;28;20025;-84
2023/01/26 03:10:02;;;;;;;41.03;26.90;;;4.00;99.90;;;;;;5054620;28;20021;-85
2023/01/26 03:12:27;;;;;;;36.67;25.05;;;4.00;99.90;;;;;;5053888;28;20389;-85
2023/01/26 03:15:41;;;;;;;43.65;27.65;;;3.90;99.90;;;;;;5054127;28;20025;-85
2023/01/26 03:17:38;;;;;;;43.22;28.55;;;4.00;99.90;;;;;;5053693;28;20025;-85
2023/01/26 03:28:23;;;;;;;45.08;26.80;;;3.80;99.90;;;;;;4993191;28;20158;-85
2023/01/26 03:30:49;;;;;;;41.05;27.30;;;3.90;99.90;;;;;;4991646;28;20084;-84
2023/01/26 03:33:16;;;;;;;42.33;26.48;;;4.20;99.90;;;;;;4992559;28;20058;-85
2023/01/26 03:35:42;;;;;;;40.33;26.15;;;3.90;99.90;;;;;;4992181;28;20042;-84
2023/01/26 03:38:08;;;;;;;43.40;27.38;;;4.10;99.90;;;;;;4991260;28;20077;-85
2023/01/26 03:57:01;;;;;;;45.55;29.85;;;4.00;99.90;;;;;;4992306;28;20438;-84
2023/01/26 03:59:39;;;;;;;42.13;26.83;;;3.80;99.90;;;;;;4991843;28;20030;-85
2023/01/26 04:10:21;;;;;;;39.20;25.50;;;3.90;99.90;;;;;;5053853;28;20028;-85
2023/01/26 04:23:46;;;;;;;48.85;29.00;;;4.30;99.90;;;;;;5047485;28;20080;-85
2023/01/26 04:26:12;;;;;;;49.03;28.67;;;4.10;99.90;;;;;;5033002;28;20473;-85
2023/01/26 04:28:37;;;;;;;55.28;31.80;;;3.80;99.90;;;;;;5033083;28;20544;-85
2023/01/26 04:31:03;;;;;;;38.92;24.58;;;3.70;99.90;;;;;;5050118;28;20029;-85
2023/01/26 04:33:29;;;;;;;57.35;33.53;;;3.70;99.90;;;;;;5052300;28;20045;-85
2023/01/26 04:35:55;;;;;;;80.20;41.47;;;3.70;99.90;;;;;;5052379;28;20469;-85
2023/01/26 04:38:21;;;;;;;49.08;29.17;;;3.80;99.90;;;;;;5052602;28;20059;-85
2023/01/26 04:40:55;;;;;;;104.20;48.92;;;3.70;99.90;;;;;;5053281;28;20109;-85
2023/01/26 04:43:21;;;;;;;108.72;50.55;;;4.00;99.90;;;;;;5052929;28;20068;-85
2023/01/26 04:46:03;;;;;;;56.10;31.55;;;3.90;99.90;;;;;;5051758;28;20085;-85
2023/01/26 04:48:29;;;;;;;44.28;25.73;;;3.70;99.90;;;;;;5052548;28;20036;-85
2023/01/26 04:50:57;;;;;;;43.95;25.67;;;4.30;99.90;;;;;;5051051;28;20032;-85
2023/01/26 04:53:23;;;;;;;42.97;26.15;;;3.90;99.90;;;;;;5052302;28;20033;-85
2023/01/26 04:55:49;;;;;;;45.50;26.95;;;3.90;99.90;;;;;;5041461;28;20064;-85
2023/01/26 04:58:14;;;;;;;61.15;33.60;;;3.80;99.90;;;;;;5052533;28;20055;-84
2023/01/26 05:00:40;;;;;;;47.08;26.88;;;3.90;99.90;;;;;;5052032;28;20382;-84
2023/01/26 05:03:05;;;;;;;47.92;26.30;;;4.20;99.90;;;;;;5051883;28;20025;-85
2023/01/26 05:05:35;;;;;;;67.05;34.00;;;3.80;99.90;;;;;;5051753;28;20041;-84
2023/01/26 05:08:02;;;;;;;45.90;26.02;;;3.80;99.90;;;;;;5052281;28;20485;-85
2023/01/26 05:10:28;;;;;;;41.17;24.63;;;3.80;99.90;;;;;;5052865;28;20025;-84
2023/01/26 05:12:53;;;;;;;41.92;25.30;;;4.00;99.90;;;;;;5052749;28;20047;-85
2023/01/26 05:15:19;;;;;;;40.90;23.55;;;3.90;99.90;;;;;;5051876;28;20025;-85
2023/01/26 05:17:44;;;;;;;40.95;22.17;;;3.90;99.90;;;;;;5051499;28;20062;-85
2023/01/26 05:20:10;;;;;;;38.78;22.70;;;4.00;99.90;;;;;;5051812;28;20028;-85
2023/01/26 05:22:36;;;;;;;37.38;22.95;;;3.80;99.90;;;;;;5051898;28;20043;-85
2023/01/26 05:25:02;;;;;;;50.95;27.73;;;3.80;99.90;;;;;;5052066;28;20029;-85
2023/01/26 05:27:27;;;;;;;40.95;25.75;;;3.80;99.90;;;;;;5051701;28;20033;-85
2023/01/26 05:29:58;;;;;;;37.63;22.13;;;3.90;99.90;;;;;;5051245;28;20115;-85
2023/01/26 05:32:28;;;;;;;49.63;28.17;;;3.80;99.90;;;;;;5051858;28;20045;-85
2023/01/26 05:34:54;;;;;;;48.88;27.48;;;3.80;99.90;;;;;;5051791;28;20031;-85
2023/01/26 05:37:20;;;;;;;54.47;30.45;;;4.20;99.90;;;;;;5051593;28;20017;-85
2023/01/26 05:39:45;;;;;;;40.22;23.15;;;4.00;99.90;;;;;;5051853;28;20033;-85
2023/01/26 05:42:12;;;;;;;161.45;74.25;;;4.00;99.90;;;;;;5051792;28;20028;-85
2023/01/26 05:44:38;;;;;;;41.50;23.83;;;4.00;99.90;;;;;;5052069;28;20036;-85
2023/01/26 05:47:04;;;;;;;54.15;30.33;;;3.80;99.90;;;;;;5051478;28;20488;-85
2023/01/26 05:49:30;;;;;;;55.95;31.23;;;3.70;99.90;;;;;;5051235;28;20044;-84
2023/01/26 05:51:56;;;;;;;63.35;36.67;;;4.00;99.90;;;;;;5051085;28;20477;-85
2023/01/26 05:54:22;;;;;;;89.25;49.88;;;3.90;99.90;;;;;;5051356;28;20033;-85
2023/01/26 05:56:47;;;;;;;49.47;28.55;;;3.80;99.90;;;;;;5051603;28;20025;-85
2023/01/26 05:59:13;;;;;;;124.53;69.28;;;3.60;99.90;;;;;;5051815;28;20060;-85
2023/01/26 06:01:39;;;;;;;118.22;69.63;;;3.80;99.90;;;;;;5053045;28;20086;-85
2023/01/26 06:04:05;;;;;;;72.38;42.38;;;3.80;99.90;;;;;;5055743;28;20108;-85
2023/01/26 06:06:30;;;;;;;48.47;28.88;;;4.00;99.90;;;;;;5055428;28;20043;-85
2023/01/26 06:08:57;;;;;;;43.42;26.75;;;3.70;99.90;;;;;;5055021;28;20435;-85
2023/01/26 06:11:23;;;;;;;48.80;30.63;;;3.70;99.90;;;;;;5056295;28;20025;-85
2023/01/26 06:13:48;;;;;;;45.47;26.75;;;3.70;99.90;;;;;;5056007;28;20484;-85
2023/01/26 06:16:14;;;;;;;82.15;48.95;;;4.10;99.90;;;;;;5054419;28;20025;-85
2023/01/26 06:18:39;;;;;;;121.80;74.95;;;3.90;99.90;;;;;;5054668;28;20039;-85
2023/01/26 06:21:06;;;;;;;42.95;24.92;;;3.80;99.90;;;;;;5054739;28;20029;-85
2023/01/26 06:23:32;;;;;;;46.55;26.98;;;4.10;99.90;;;;;;5055171;28;20037;-85
2023/01/26 06:25:59;;;;;;;55.80;34.13;;;3.60;99.90;;;;;;5054616;28;20051;-85
2023/01/26 06:28:25;;;;;;;93.80;56.05;;;4.00;99.90;;;;;;5054851;28;20025;-85
2023/01/26 06:30:50;;;;;;;43.83;27.67;;;3.70;99.90;;;;;;5054539;28;20393;-84
2023/01/26 06:33:17;;;;;;;41.40;24.05;;;3.70;99.90;;;;;;5055057;28;20057;-85
2023/01/26 06:35:43;;;;;;;53.22;31.63;;;3.60;99.90;;;;;;5054763;28;20443;-85
2023/01/26 06:38:08;;;;;;;38.50;23.00;;;4.10;99.90;;;;;;5054831;28;20036;-85
2023/01/26 06:40:34;;;;;;;58.92;34.30;;;3.50;99.90;;;;;;5054438;28;20060;-85
2023/01/26 06:43:00;;;;;;;82.47;50.67;;;3.90;99.90;;;;;;5055054;28;20035;-85
2023/01/26 06:45:25;;;;;;;88.80;53.65;;;3.60;99.90;;;;;;5053971;28;20078;-85
2023/01/26 06:47:51;;;;;;;48.97;28.75;;;3.60;99.90;;;;;;5054461;28;20025;-85
2023/01/26 06:50:25;;;;;;;36.53;21.08;;;3.60;99.90;;;;;;5048929;28;20444;-85
2023/01/26 06:52:55;;;;;;;55.22;32.67;;;3.60;99.90;;;;;;5034577;28;20025;-85
2023/01/26 06:55:38;;;;;;;68.20;40.47;;;3.70;99.90;;;;;;5050768;28;20025;-85
2023/01/26 06:58:04;;;;;;;39.40;22.90;;;3.70;99.90;;;;;;5054608;28;20029;-85
2023/01/26 07:00:29;;;;;;;44.35;25.77;;;3.60;99.90;;;;;;5054402;28;20025;-85
2023/01/26 07:02:55;;;;;;;35.22;21.30;;;3.80;99.90;;;;;;5054573;28;20500;-85
2023/01/26 07:05:20;;;;;;;34.42;20.75;;;3.80;99.90;;;;;;5054464;28;20485;-85
2023/01/26 07:07:46;;;;;;;37.53;23.55;;;3.50;99.90;;;;;;5054271;28;20025;-85
2023/01/26 07:10:12;;;;;;;40.28;25.10;;;3.60;99.90;;;;;;5054520;28;20025;-85
2023/01/26 07:12:46;;;;;;;40.80;24.20;;;3.50;99.90;;;;;;5054209;28;20485;-85
2023/01/26 07:15:12;;;;;;;42.95;24.55;;;3.60;99.90;;;;;;5054007;28;20046;-85
2023/01/26 07:17:39;;;;;;;57.55;34.47;;;3.60;99.90;;;;;;5052557;28;20025;-87
2023/01/26 07:20:05;;;;;;;54.60;33.08;;;3.60;99.90;;;;;;5060821;28;20439;-86
2023/01/26 07:22:31;;;;;;;37.97;23.35;;;3.80;99.90;;;;;;5054230;28;20029;-87
2023/01/26 07:24:56;;;;;;;49.33;29.60;;;4.00;99.90;;;;;;5054084;28;20377;-86
2023/01/26 07:27:22;;;;;;;37.95;22.95;;;4.40;99.90;;;;;;5054157;28;20465;-86
2023/01/26 07:29:50;;;;;;;40.15;23.15;;;4.10;99.90;;;;;;5053752;28;20535;-86
2023/01/26 07:32:16;;;;;;;36.67;21.85;;;4.40;99.90;;;;;;5066763;28;20516;-86
2023/01/26 07:34:41;;;;;;;32.78;21.30;;;4.40;99.90;;;;;;5073038;28;20377;-86
2023/01/26 07:37:07;;;;;;;34.15;20.55;;;4.40;99.90;;;;;;5053580;28;20071;-86
2023/01/26 07:39:32;;;;;;;40.53;22.48;;;4.20;99.90;;;;;;5054230;28;20028;-87
2023/01/26 07:41:59;;;;;;;38.33;23.75;;;4.30;99.90;;;;;;5055521;28;20025;-87
2023/01/26 07:44:24;;;;;;;36.47;22.60;;;4.30;99.90;;;;;;5053423;28;20037;-88
2023/01/26 07:46:50;;;;;;;36.92;22.17;;;4.10;99.90;;;;;;5053518;28;20094;-87
2023/01/26 07:49:16;;;;;;;58.15;36.05;;;4.50;99.90;;;;;;5055136;28;20028;-88
2023/01/26 07:51:41;;;;;;;388.33;290.15;;;4.70;99.90;;;;;;5036575;28;20048;-85
2023/01/26 07:54:11;;;;;;;114.18;89.88;;;4.00;99.90;;;;;;5053375;28;20028;-88
2023/01/26 07:56:37;;;;;;;52.92;36.97;;;4.10;99.90;;;;;;5054394;28;20064;-87
2023/01/26 07:59:02;;;;;;;43.85;26.85;;;4.30;99.90;;;;;;5053394;28;20063;-87
2023/01/26 08:01:28;;;;;;;41.22;24.42;;;4.10;99.90;;;;;;5052714;28;20044;-89
2023/01/26 08:03:54;;;;;;;44.13;25.33;;;4.20;99.90;;;;;;5037180;28;20090;-89
2023/01/26 08:06:20;;;;;;;42.28;27.33;;;4.60;99.90;;;;;;5046653;28;20052;-89
2023/01/26 08:08:50;;;;;;;42.10;24.05;;;4.10;99.90;;;;;;5073523;28;20035;-88
2023/01/26 08:11:18;;;;;;;36.03;22.50;;;4.50;99.90;;;;;;5053936;28;20025;-89
2023/01/26 08:13:44;;;;;;;45.75;29.95;;;4.30;99.90;;;;;;5044348;28;20033;-89
2023/01/26 08:16:11;;;;;;;52.50;35.72;;;4.60;99.90;;;;;;5037602;28;20400;-89
2023/01/26 08:18:41;;;;;;;46.25;29.88;;;4.70;99.90;;;;;;5053124;28;20021;-89
2023/01/26 08:21:07;;;;;;;54.97;32.67;;;4.20;99.90;;;;;;5035918;28;20036;-89
2023/01/26 08:23:33;;;;;;;73.97;47.75;;;4.30;99.90;;;;;;5035307;28;20029;-89
2023/01/26 08:26:03;;;;;;;36.08;22.90;;;4.30;99.90;;;;;;5033092;28;20040;-89
2023/01/26 08:28:29;;;;;;;40.00;24.33;;;4.40;99.90;;;;;;5034962;28;20057;-89
2023/01/26 08:30:55;;;;;;;47.47;30.08;;;4.80;99.90;;;;;;5053211;28;20055;-91
2023/01/26 08:33:21;;;;;;;50.72;32.00;;;4.50;99.90;;;;;;5053921;28;20488;-90
2023/01/26 08:35:47;;;;;;;54.60;36.20;;;4.60;99.90;;;;;;5034860;28;20128;-89
2023/01/26 08:38:12;;;;;;;78.10;57.38;;;4.50;99.90;;;;;;5052909;28;20056;-90
2023/01/26 08:40:38;;;;;;;49.40;33.05;;;4.70;99.90;;;;;;5034826;28;20103;-89
2023/01/26 08:43:04;;;;;;;49.08;33.58;;;4.70;99.90;;;;;;5052674;28;20033;-86
2023/01/26 08:45:31;;;;;;;41.65;27.38;;;4.80;99.90;;;;;;5052480;28;20043;-86
2023/01/26 08:47:56;;;;;;;36.90;23.70;;;5.00;99.90;;;;;;5052573;28;20432;-86
2023/01/26 08:50:23;;;;;;;49.08;32.20;;;4.90;99.90;;;;;;5052827;28;20040;-87
2023/01/26 08:52:48;;;;;;;34.38;22.00;;;4.80;99.90;;;;;;5052557;28;20028;-86
2023/01/26 08:55:14;;;;;;;44.53;30.42;;;4.80;99.90;;;;;;5051219;28;20401;-86
2023/01/26 08:57:40;;;;;;;40.83;25.73;;;4.50;99.90;;;;;;5052612;28;20500;-87
2023/01/26 09:00:06;;;;;;;32.25;20.70;;;4.80;99.90;;;;;;5052188;28;20506;-87
2023/01/26 09:02:32;;;;;;;34.55;22.05;;;4.50;99.90;;;;;;5052693;28;20021;-86
2023/01/26 09:04:58;;;;;;;36.42;22.90;;;4.70;99.90;;;;;;5034562;28;20120;-87
2023/01/26 09:07:23;;;;;;;34.50;20.08;;;4.40;99.90;;;;;;5052460;28;20029;-87
2023/01/26 09:09:49;;;;;;;35.97;23.60;;;4.70;99.90;;;;;;5051871;28;20036;-86
2023/01/26 09:12:14;;;;;;;32.40;20.13;;;4.90;99.90;;;;;;5052119;28;20558;-87
2023/01/26 09:14:40;;;;;;;36.85;24.40;;;4.90;99.90;;;;;;5052376;28;20025;-87
2023/01/26 09:17:06;;;;;;;34.72;20.88;;;4.70;99.90;;;;;;5052241;28;20440;-87
2023/01/26 09:19:32;;;;;;;40.67;28.70;;;4.60;99.90;;;;;;5052231;28;20397;-87
2023/01/26 09:21:57;;;;;;;30.85;19.58;;;4.30;99.90;;;;;;5052160;28;20037;-86
2023/01/26 09:24:23;;;;;;;41.50;26.63;;;4.70;99.90;;;;;;5034343;28;20540;-87
2023/01/26 09:26:49;;;;;;;35.85;24.08;;;4.40;99.90;;;;;;5052020;28;20111;-86
2023/01/26 09:29:15;;;;;;;34.97;21.58;;;4.30;99.90;;;;;;5052039;28;20021;-87
2023/01/26 09:31:40;;;;;;;35.85;23.48;;;4.30;99.90;;;;;;5051884;28;20082;-87
2023/01/26 09:34:06;;;;;;;33.78;21.17;;;4.30;99.90;;;;;;5052267;28;20025;-87
2023/01/26 09:36:32;;;;;;;28.27;18.17;;;4.30;99.90;;;;;;5034060;28;20031;-87
2023/01/26 09:38:58;;;;;;;32.10;20.17;;;4.30;99.90;;;;;;5051611;28;20481;-87
2023/01/26 09:41:48;;;;;;;36.10;23.17;;;4.40;99.90;;;;;;5052224;28;20535;-87
2023/01/26 09:44:23;;;;;;;35.15;21.05;;;4.40;99.90;;;;;;5051687;28;20485;-87
2023/01/26 09:47:07;;;;;;;33.35;19.90;;;4.50;99.90;;;;;;5052158;28;20075;-87
2023/01/26 09:49:50;;;;;;;32.00;21.00;;;4.40;99.90;;;;;;5051816;28;20040;-87
2023/01/26 09:52:26;;;;;;;27.98;18.13;;;4.50;99.90;;;;;;5052023;28;20021;-87
2023/01/26 09:54:54;;;;;;;28.85;18.80;;;4.40;99.90;;;;;;5051808;28;20151;-87
2023/01/26 09:57:41;;;;;;;28.83;20.60;;;4.40;99.90;;;;;;5052497;28;20021;-87
2023/01/26 10:00:18;;;;;;;31.95;20.77;;;4.50;99.90;;;;;;5051652;28;20035;-87
2023/01/26 10:02:52;;;;;;;29.52;18.77;;;4.50;99.90;;;;;;5051732;28;20032;-86
2023/01/26 10:05:39;;;;;;;35.37;24.33;;;4.50;99.90;;;;;;5051854;28;20108;-87
2023/01/26 10:08:13;;;;;;;138.40;89.10;;;4.70;99.90;;;;;;5051590;28;20555;-86
2023/01/26 10:11:23;;;;;;;86.95;62.85;;;4.90;99.90;;;;;;5051676;28;20025;-87
2023/01/26 10:14:01;;;;;;;87.03;63.85;;;4.90;99.90;;;;;;4970842;28;20062;-86
2023/01/26 10:16:27;;;;;;;56.63;37.35;;;4.90;99.90;;;;;;4970645;28;20030;-87
2023/01/26 10:19:02;;;;;;;125.32;90.80;;;5.10;99.90;;;;;;4970944;28;20424;-86
2023/01/26 10:21:35;;;;;;;28.42;18.70;;;4.90;99.90;;;;;;4971091;28;20053;-87
2023/01/26 10:24:01;;;;;;;34.03;22.83;;;5.00;99.90;;;;;;4970497;28;20031;-87
2023/01/26 10:26:30;;;;;;;45.80;34.80;;;4.80;99.90;;;;;;4970440;28;20122;-87
2023/01/26 10:28:56;;;;;;;35.38;23.50;;;4.80;99.90;;;;;;4970697;28;20499;-87
2023/01/26 10:31:25;;;;;;;27.70;18.83;;;5.20;99.90;;;;;;4954569;28;20101;-86
2023/01/26 10:34:01;;;;;;;25.95;16.33;;;5.00;99.90;;;;;;4970402;28;20067;-86
2023/01/26 10:36:30;;;;;;;28.63;18.42;;;4.70;99.90;;;;;;4970897;28;20042;-86
2023/01/26 10:39:07;;;;;;;28.25;18.27;;;5.10;99.90;;;;;;4970589;28;20081;-87
2023/01/26 10:41:33;;;;;;;25.92;17.10;;;4.80;99.90;;;;;;4970404;28;20497;-86
2023/01/26 10:44:21;;;;;;;23.83;16.40;;;5.00;99.90;;;;;;4995059;28;20068;-87
2023/01/26 10:47:21;;;;;;;26.70;16.35;;;4.80;99.90;;;;;;5050697;28;20044;-87
2023/01/26 10:49:47;;;;;;;25.42;16.55;;;4.80;99.90;;;;;;5037405;28;20071;-87
2023/01/26 10:52:24;;;;;;;54.42;43.28;;;4.70;99.90;;;;;;5054674;28;20085;-87
2023/01/26 10:55:19;;;;;;;39.42;27.25;;;4.70;99.90;;;;;;5036849;28;20029;-86
2023/01/26 10:57:45;;;;;;;101.07;77.13;;;4.90;99.90;;;;;;5020486;28;20136;-86
2023/01/26 11:00:29;;;;;;;26.65;17.13;;;4.60;99.90;;;;;;5054810;28;20528;-87
2023/01/26 11:03:10;;;;;;;35.78;26.35;;;4.70;99.90;;;;;;5054655;28;20385;-86
2023/01/26 11:05:36;;;;;;;33.28;25.55;;;4.80;99.90;;;;;;5054818;28;20028;-87
2023/01/26 11:08:05;;;;;;;24.50;17.48;;;4.70;99.90;;;;;;5054605;28;20033;-87
2023/01/26 11:10:36;;;;;;;23.92;15.88;;;5.10;99.90;;;;;;5054478;28;20082;-87
2023/01/26 11:13:16;;;;;;;21.40;14.90;;;4.90;99.90;;;;;;5054879;28;20059;-87
2023/01/26 11:15:47;;;;;;;24.60;15.40;;;5.10;99.90;;;;;;5054336;28;20059;-86
2023/01/26 11:18:31;;;;;;;27.77;18.33;;;4.60;99.90;;;;;;5054422;28;20033;-86
2023/01/26 11:21:10;;;;;;;24.55;15.02;;;4.70;99.90;;;;;;5054387;28;20507;-87
2023/01/26 11:24:04;;;;;;;23.83;15.55;;;4.80;99.90;;;;;;5054346;28;20014;-86
2023/01/26 11:27:01;;;;;;;37.00;24.23;;;4.80;99.90;;;;;;5054209;28;20044;-86
2023/01/26 11:29:48;;;;;;;29.27;19.48;;;4.70;99.90;;;;;;5052983;28;20469;-86
2023/01/26 11:32:28;;;;;;;27.83;18.50;;;4.60;99.90;;;;;;5054031;28;20048;-87
2023/01/26 11:34:59;;;;;;;27.20;15.35;;;4.60;99.90;;;;;;5053773;28;20032;-86
2023/01/26 11:37:43;;;;;;;44.05;29.98;;;4.70;99.90;;;;;;5054008;28;20032;-86
2023/01/26 11:40:44;;;;;;;33.67;20.00;;;4.60;99.90;;;;;;5054753;28;20104;-87
2023/01/26 11:43:21;;;;;;;22.48;15.35;;;4.70;99.90;;;;;;4992553;28;20034;-87
2023/01/26 11:46:01;;;;;;;23.33;15.02;;;4.60;99.90;;;;;;4992616;28;20053;-87
2023/01/26 11:48:27;;;;;;;42.13;25.00;;;4.50;99.90;;;;;;4992760;28;20542;-87
2023/01/26 11:50:59;;;;;;;28.58;18.30;;;4.90;99.90;;;;;;4992144;28;20044;-87
2023/01/26 11:53:56;;;;;;;25.83;16.95;;;4.40;99.90;;;;;;4992274;28;20105;-87
2023/01/26 11:56:41;;;;;;;29.15;17.75;;;4.30;99.90;;;;;;4934298;29;20039;-87
2023/01/26 11:59:31;;;;;;;23.98;14.70;;;4.40;99.90;;;;;;4934107;29;20039;-87
2023/01/26 12:02:05;;;;;;;32.58;21.88;;;4.70;99.90;;;;;;4934477;29;20040;-87
2023/01/26 12:04:36;;;;;;;25.13;15.48;;;4.50;99.90;;;;;;4934878;29;20031;-86
2023/01/26 12:07:53;;;;;;;24.48;15.00;;;4.80;99.90;;;;;;4934059;29;20055;-87
2023/01/26 12:10:28;;;;;;;21.20;13.57;;;4.70;99.90;;;;;;4915103;29;20064;-87
2023/01/26 12:13:19;;;;;;;23.17;13.40;;;4.90;99.90;;;;;;4915126;29;20048;-87
2023/01/26 12:15:55;;;;;;;22.50;13.60;;;4.60;99.90;;;;;;4914785;29;20489;-87
2023/01/26 12:18:34;;;;;;;24.40;16.27;;;4.80;99.90;;;;;;4927684;29;20078;-87
2023/01/26 12:21:05;;;;;;;24.17;14.07;;;4.40;99.90;;;;;;4953518;29;20047;-87
2023/01/26 12:23:47;;;;;;;24.17;16.42;;;4.50;99.90;;;;;;4953052;29;20038;-87
2023/01/26 12:26:20;;;;;;;30.45;20.77;;;4.40;99.90;;;;;;4952925;29;20047;-86
2023/01/26 12:29:08;;;;;;;28.67;14.98;;;4.40;99.90;;;;;;4936654;29;20037;-87
2023/01/26 12:31:52;;;;;;;31.40;18.00;;;4.60;99.90;;;;;;4952742;29;20031;-86
2023/01/26 12:34:29;;;;;;;25.95;16.45;;;4.50;99.90;;;;;;4991561;28;20065;-86
2023/01/26 12:37:03;;;;;;;36.10;20.75;;;4.50;99.90;;;;;;4991567;28;20038;-87
2023/01/26 12:39:28;;;;;;;34.53;22.20;;;4.70;99.90;;;;;;4991320;28;20122;-87
2023/01/26 12:41:57;;;;;;;25.88;17.13;;;4.60;99.90;;;;;;4991935;28;20030;-87
2023/01/26 12:44:42;;;;;;;34.83;20.33;;;4.50;99.90;;;;;;4991311;28;20094;-86
2023/01/26 12:47:11;;;;;;;25.00;14.50;;;4.80;99.90;;;;;;5029304;28;20509;-86
2023/01/26 12:49:49;;;;;;;26.27;16.67;;;4.50;99.90;;;;;;5052236;28;20027;-87
2023/01/26 12:52:49;;;;;;;22.65;13.55;;;4.50;99.90;;;;;;5034807;28;20495;-86
2023/01/26 12:55:23;;;;;;;26.90;15.55;;;4.80;99.90;;;;;;5052540;28;20086;-87
2023/01/26 12:57:59;;;;;;;25.75;17.33;;;4.50;99.90;;;;;;5052551;28;20021;-87
2023/01/26 13:00:29;;;;;;;22.80;14.90;;;4.40;99.90;;;;;;5053313;28;20025;-87
2023/01/26 13:03:14;;;;;;;23.45;15.88;;;4.50;99.90;;;;;;5052415;28;20089;-86
2023/01/26 13:05:57;;;;;;;23.02;14.05;;;4.40;99.90;;;;;;5052370;28;20036;-87
2023/01/26 13:08:31;;;;;;;20.08;13.18;;;4.50;99.90;;;;;;5052781;28;20233;-87
2023/01/26 13:11:07;;;;;;;40.20;27.98;;;4.70;99.90;;;;;;5034049;28;20029;-87
2023/01/26 13:13:37;;;;;;;32.47;21.15;;;4.40;99.90;;;;;;5052357;28;20056;-86
2023/01/26 13:16:15;;;;;;;24.90;16.60;;;4.70;99.90;;;;;;5052294;28;20031;-87
2023/01/26 13:19:27;;;;;;;22.77;13.98;;;4.70;99.90;;;;;;5052349;28;20136;-87
2023/01/26 13:21:52;;;;;;;23.40;14.00;;;4.60;99.90;;;;;;5051572;28;20445;-87
2023/01/26 13:24:18;;;;;;;25.08;15.48;;;4.40;99.90;;;;;;5034238;28;20087;-86
2023/01/26 13:26:51;;;;;;;17.55;10.63;;;4.60;99.90;;;;;;5051992;28;20041;-86
2023/01/26 13:29:26;;;;;;;26.35;17.27;;;3.90;99.90;;;;;;5052130;28;20025;-86
2023/01/26 13:31:53;;;;;;;38.60;22.88;;;4.10;99.90;;;;;;5050474;28;20053;-87
2023/01/26 13:34:27;;;;;;;120.05;77.30;;;4.20;99.90;;;;;;5034765;28;20388;-87
2023/01/26 13:36:59;;;;;;;24.23;15.40;;;4.10;99.90;;;;;;5051993;28;20071;-87